Time;durP1;ratioP1;P1;durP2;ratioP2;P2;SDS_P1;SDS_P2;PMS_P1;PMS_P2;Temp;Humidity;BMP_temperature;BMP_pressure;BME280_temperature;BME280_humidity;BME280_pressure;Samples;Min_cycle;Max_cycle;Signal;HPM_P1;HPM_P2
2022/07/19 00:00:17;;;;;;;22.33;10.85;;;;;;;19.09;63.11;101732.81;5029194;28;20543;-73
2022/07/19 00:02:42;;;;;;;17.63;10.68;;;;;;;19.03;63.58;101734.41;5026813;28;20033;-74
2022/07/19 00:05:09;;;;;;;18.85;10.55;;;;;;;19.02;64.02;101737.38;5020470;28;20033;-73
2022/07/19 00:07:35;;;;;;;16.92;10.80;;;;;;;19.00;63.59;101742.22;5013053;28;20028;-72
2022/07/19 00:10:01;;;;;;;16.10;10.93;;;;;;;18.99;63.91;101738.63;5008760;28;20105;-74
2022/07/19 00:12:26;;;;;;;18.15;10.57;;;;;;;18.93;63.61;101733.91;5000622;28;20030;-73
2022/07/19 00:14:52;;;;;;;15.90;10.65;;;;;;;18.85;63.90;101737.59;4999952;28;20033;-73
2022/07/19 00:17:17;;;;;;;14.98;10.15;;;;;;;18.84;64.36;101746.00;5030548;28;20051;-73
2022/07/19 00:19:43;;;;;;;21.98;10.57;;;;;;;18.77;64.07;101734.94;5030753;28;20079;-73
2022/07/19 00:22:08;;;;;;;22.08;10.38;;;;;;;18.74;64.79;101734.50;5029645;28;20029;-73
2022/07/19 00:24:34;;;;;;;22.88;10.73;;;;;;;18.54;65.48;101736.94;5014402;28;20021;-73
2022/07/19 00:26:59;;;;;;;16.67;9.90;;;;;;;18.59;65.32;101742.72;5004152;28;20021;-73
2022/07/19 00:29:24;;;;;;;18.95;10.48;;;;;;;18.34;65.97;101744.88;5005221;28;20044;-73
2022/07/19 00:31:50;;;;;;;18.88;10.70;;;;;;;18.03;67.58;101737.66;5016280;28;20333;-72
2022/07/19 00:34:15;;;;;;;17.35;11.40;;;;;;;18.13;67.12;101732.75;5007824;28;20048;-73
2022/07/19 00:36:41;;;;;;;23.92;11.02;;;;;;;18.23;66.86;101742.59;5022585;28;20033;-73
2022/07/19 00:39:06;;;;;;;19.40;9.90;;;;;;;18.30;66.17;101743.53;5005935;28;20037;-73
2022/07/19 00:41:31;;;;;;;16.58;10.27;;;;;;;18.29;66.25;101744.59;5014622;28;20032;-73
2022/07/19 00:43:57;;;;;;;15.50;10.00;;;;;;;18.21;66.63;101739.19;5010321;28;20449;-73
2022/07/19 00:46:23;;;;;;;18.08;11.15;;;;;;;18.17;66.64;101750.50;5009541;28;20025;-73
2022/07/19 00:48:49;;;;;;;17.48;10.63;;;;;;;18.18;66.41;101741.25;5009794;28;20033;-73
2022/07/19 00:51:16;;;;;;;22.20;11.15;;;;;;;18.13;66.14;101743.72;5023370;28;20022;-73
2022/07/19 00:53:44;;;;;;;16.77;10.32;;;;;;;18.09;66.31;101747.00;5027390;28;20026;-73
2022/07/19 00:56:11;;;;;;;18.75;10.52;;;;;;;18.13;66.54;101749.22;5031290;28;20021;-73
2022/07/19 00:58:38;;;;;;;20.17;11.13;;;;;;;18.02;67.06;101744.16;5019818;28;20032;-73
2022/07/19 01:01:05;;;;;;;16.73;10.75;;;;;;;17.94;67.55;101748.88;5009582;28;20444;-73
2022/07/19 01:03:34;;;;;;;20.95;11.38;;;;;;;17.93;68.02;101748.03;5014279;28;20028;-73
2022/07/19 01:05:59;;;;;;;17.88;9.82;;;;;;;17.90;68.21;101737.44;5014082;28;20095;-73
2022/07/19 01:08:24;;;;;;;16.65;10.63;;;;;;;17.79;67.73;101735.13;5010955;28;20017;-74
2022/07/19 01:10:50;;;;;;;17.05;10.85;;;;;;;17.80;68.04;101736.81;5019581;28;20026;-73
2022/07/19 01:13:16;;;;;;;16.85;10.38;;;;;;;17.82;68.01;101745.72;5012944;28;20100;-73
2022/07/19 01:15:42;;;;;;;21.88;10.32;;;;;;;17.77;68.61;101742.69;5004989;28;20088;-73
2022/07/19 01:18:08;;;;;;;22.05;10.70;;;;;;;17.63;68.49;101747.03;5020946;28;20026;-73
2022/07/19 01:20:33;;;;;;;20.27;10.43;;;;;;;17.70;68.68;101744.44;5016092;28;20060;-73
2022/07/19 01:22:59;;;;;;;18.23;10.05;;;;;;;17.58;68.83;101750.31;5013281;28;20030;-73
2022/07/19 01:25:27;;;;;;;19.48;11.18;;;;;;;17.57;69.13;101743.16;5007026;28;20435;-73
2022/07/19 01:27:52;;;;;;;20.52;10.55;;;;;;;17.47;68.75;101739.78;5030199;28;20078;-73
2022/07/19 01:30:21;;;;;;;16.90;10.30;;;;;;;17.36;69.49;101745.72;5013641;28;20443;-73
2022/07/19 01:32:47;;;;;;;15.40;10.43;;;;;;;17.38;69.75;101749.09;5034237;28;20030;-73
2022/07/19 01:35:13;;;;;;;18.98;10.27;;;;;;;17.47;69.44;101753.47;5022456;28;20037;-72
2022/07/19 01:37:39;;;;;;;20.10;10.30;;;;;;;17.50;69.21;101747.66;5026622;28;20025;-73
2022/07/19 01:40:07;;;;;;;17.30;10.27;;;;;;;17.46;69.00;101754.50;5010149;28;20021;-73
2022/07/19 01:42:32;;;;;;;14.98;9.82;;;;;;;17.47;68.97;101747.16;5010169;28;20108;-73
2022/07/19 01:44:58;;;;;;;15.57;10.02;;;;;;;17.45;69.18;101739.13;5024194;28;20101;-73
2022/07/19 01:47:24;;;;;;;13.68;9.10;;;;;;;17.37;68.95;101736.47;5016599;28;20096;-73
2022/07/19 01:49:49;;;;;;;13.38;9.23;;;;;;;17.37;68.82;101741.94;5033842;28;20051;-73
2022/07/19 01:52:15;;;;;;;16.48;10.63;;;;;;;17.39;69.10;101744.47;5031261;28;20028;-73
2022/07/19 01:54:40;;;;;;;14.50;10.32;;;;;;;17.36;69.39;101740.22;5016995;28;20029;-73
2022/07/19 01:57:06;;;;;;;16.73;10.38;;;;;;;17.35;69.12;101741.28;5005910;28;20092;-73
2022/07/19 01:59:31;;;;;;;20.85;11.07;;;;;;;17.32;69.61;101730.66;5017852;28;20037;-73
2022/07/19 02:01:56;;;;;;;14.60;10.02;;;;;;;17.26;69.36;101734.13;5000133;28;20026;-73
2022/07/19 02:04:22;;;;;;;19.02;10.85;;;;;;;17.17;69.88;101729.75;5003278;28;20052;-73
2022/07/19 02:06:47;;;;;;;17.38;9.95;;;;;;;17.16;69.77;101733.53;5009262;28;20025;-73
2022/07/19 02:09:13;;;;;;;20.02;10.50;;;;;;;17.14;69.78;101735.56;5015716;28;20056;-73
2022/07/19 02:11:38;;;;;;;14.88;9.32;;;;;;;17.04;69.73;101742.13;5027913;28;20464;-73
2022/07/19 02:14:05;;;;;;;16.17;10.23;;;;;;;16.89;70.82;101743.94;5009563;28;20484;-73
2022/07/19 02:16:31;;;;;;;15.55;10.70;;;;;;;16.87;70.27;101740.50;5031493;28;20017;-73
2022/07/19 02:18:56;;;;;;;16.75;10.00;;;;;;;16.90;70.43;101740.16;5033805;28;20036;-73
2022/07/19 02:21:21;;;;;;;17.98;10.05;;;;;;;16.86;69.90;101738.81;5012333;28;20026;-73
2022/07/19 02:23:47;;;;;;;16.77;10.23;;;;;;;16.79;70.48;101744.13;5014124;28;20029;-73
2022/07/19 02:26:12;;;;;;;15.38;9.25;;;;;;;16.80;70.26;101744.97;5006407;28;20029;-73
2022/07/19 02:28:37;;;;;;;17.33;9.95;;;;;;;16.80;70.60;101739.50;5023289;28;20021;-73
2022/07/19 02:31:04;;;;;;;16.05;9.68;;;;;;;16.82;70.74;101737.44;5019730;28;20040;-73
2022/07/19 02:33:30;;;;;;;14.80;9.27;;;;;;;16.77;70.22;101739.88;5015867;28;20361;-73
2022/07/19 02:35:55;;;;;;;16.75;9.75;;;;;;;16.77;69.96;101739.88;5020756;28;20025;-73
2022/07/19 02:38:20;;;;;;;18.45;10.30;;;;;;;16.72;70.08;101731.34;5021501;28;20080;-73
2022/07/19 02:40:46;;;;;;;14.18;9.77;;;;;;;16.68;70.72;101735.44;5007725;28;20030;-73
2022/07/19 02:43:11;;;;;;;15.77;10.15;;;;;;;16.68;70.94;101730.81;5001191;28;20030;-73
2022/07/19 02:45:36;;;;;;;16.40;10.05;;;;;;;16.70;70.73;101734.28;5014069;28;20071;-73
2022/07/19 02:48:04;;;;;;;13.35;9.30;;;;;;;16.70;70.33;101727.94;5031003;28;20091;-73
2022/07/19 02:50:30;;;;;;;17.38;10.82;;;;;;;16.67;71.00;101731.00;5015973;28;20020;-76
2022/07/19 02:52:56;;;;;;;15.45;9.40;;;;;;;16.66;70.88;101740.22;4998536;28;20064;-73
2022/07/19 02:55:21;;;;;;;15.07;10.73;;;;;;;16.61;70.79;101743.47;5020245;28;20044;-73
2022/07/19 02:57:46;;;;;;;14.27;9.40;;;;;;;16.58;70.66;101741.13;5030706;28;20037;-73
2022/07/19 03:00:12;;;;;;;14.77;8.77;;;;;;;16.59;70.48;101747.44;4999290;28;20116;-73
2022/07/19 03:02:38;;;;;;;17.60;9.05;;;;;;;16.51;71.28;101743.72;5026083;28;20025;-73
2022/07/19 03:05:04;;;;;;;19.58;9.82;;;;;;;16.56;70.52;101743.16;5030890;28;20068;-73
2022/07/19 03:07:30;;;;;;;14.55;8.80;;;;;;;16.56;70.17;101754.09;5028559;28;20049;-73
2022/07/19 03:09:56;;;;;;;20.25;10.20;;;;;;;16.50;70.59;101749.34;5015058;28;20037;-73
2022/07/19 03:12:21;;;;;;;16.55;9.77;;;;;;;16.46;70.17;101751.56;5011454;28;20021;-73
2022/07/19 03:14:46;;;;;;;13.23;9.63;;;;;;;16.53;69.94;101749.84;5014038;28;20098;-73
2022/07/19 03:17:12;;;;;;;17.42;9.38;;;;;;;16.47;70.21;101750.53;5012509;28;20025;-73
2022/07/19 03:19:37;;;;;;;17.83;9.73;;;;;;;16.48;69.79;101751.38;5020878;28;20035;-73
2022/07/19 03:22:02;;;;;;;15.18;10.30;;;;;;;16.54;69.81;101757.00;5015424;28;20010;-73
2022/07/19 03:24:28;;;;;;;16.17;9.38;;;;;;;16.50;70.12;101755.69;5028392;28;20025;-73
2022/07/19 03:26:53;;;;;;;14.18;9.63;;;;;;;16.43;71.08;101749.22;5016880;28;20033;-73
2022/07/19 03:29:19;;;;;;;16.52;10.60;;;;;;;16.36;71.91;101748.19;5020805;28;20056;-73
2022/07/19 03:31:44;;;;;;;19.23;9.45;;;;;;;16.39;71.24;101747.84;5023701;28;20032;-73
2022/07/19 03:34:09;;;;;;;15.60;10.43;;;;;;;16.29;72.08;101752.63;5022521;28;20084;-73
2022/07/19 03:36:35;;;;;;;17.35;9.32;;;;;;;16.27;71.92;101754.69;5029454;28;20033;-73
2022/07/19 03:39:00;;;;;;;15.25;9.30;;;;;;;16.28;71.48;101756.41;5016876;28;20053;-73
2022/07/19 03:41:25;;;;;;;13.80;9.48;;;;;;;16.32;70.71;101756.91;5032050;28;20030;-73
2022/07/19 03:43:51;;;;;;;17.55;10.23;;;;;;;16.35;70.72;101751.94;5011845;28;20090;-73
2022/07/19 03:46:16;;;;;;;15.20;9.88;;;;;;;16.37;71.17;101744.44;5009589;28;20109;-73
2022/07/19 03:48:42;;;;;;;15.73;9.55;;;;;;;16.34;70.69;101750.25;5023035;28;20495;-73
2022/07/19 03:51:07;;;;;;;14.50;9.50;;;;;;;16.37;70.97;101755.38;5017406;28;20139;-73
2022/07/19 03:53:34;;;;;;;18.60;9.82;;;;;;;16.39;70.76;101753.31;5029929;28;20039;-73
2022/07/19 03:56:00;;;;;;;18.73;9.88;;;;;;;16.44;70.49;101750.06;5027603;28;20144;-73
2022/07/19 03:58:25;;;;;;;19.48;10.25;;;;;;;16.47;70.32;101750.53;5030236;28;20163;-73
2022/07/19 04:00:51;;;;;;;15.30;9.55;;;;;;;16.47;70.22;101750.53;4997307;28;20026;-73
2022/07/19 04:03:16;;;;;;;17.70;9.88;;;;;;;16.45;70.65;101752.59;5026582;28;20021;-73
2022/07/19 04:05:41;;;;;;;17.52;9.88;;;;;;;16.50;70.73;101761.16;5023877;28;20107;-73
2022/07/19 04:08:07;;;;;;;14.93;9.80;;;;;;;16.61;70.02;101750.84;5027273;28;20022;-73
2022/07/19 04:10:32;;;;;;;18.63;9.23;;;;;;;16.67;69.50;101755.59;5003207;28;20026;-73
2022/07/19 04:12:58;;;;;;;16.00;9.85;;;;;;;16.74;69.34;101767.56;4993457;28;20117;-74
2022/07/19 04:15:23;;;;;;;16.02;9.35;;;;;;;16.68;69.34;101757.31;5011690;28;20080;-73
2022/07/19 04:17:48;;;;;;;19.95;9.55;;;;;;;16.80;69.70;101761.41;5024006;28;20018;-73
2022/07/19 04:20:14;;;;;;;13.30;9.60;;;;;;;16.93;69.09;101772.63;5014537;28;20476;-74
2022/07/19 04:22:39;;;;;;;18.05;9.07;;;;;;;16.97;68.98;101767.66;5029866;28;20021;-73
2022/07/19 04:25:05;;;;;;;17.05;9.98;;;;;;;17.06;68.79;101778.38;5010731;28;20037;-74
2022/07/19 04:27:32;;;;;;;15.75;10.70;;;;;;;17.15;68.84;101761.91;5003798;28;20041;-73
2022/07/19 04:29:58;;;;;;;15.90;10.02;;;;;;;17.06;68.68;101761.09;5031135;28;20120;-73
2022/07/19 04:32:23;;;;;;;17.45;10.40;;;;;;;17.17;68.25;101757.13;5019313;28;20026;-73
2022/07/19 04:34:49;;;;;;;16.05;9.25;;;;;;;17.27;68.20;101757.72;5030280;28;20044;-73
2022/07/19 04:37:15;;;;;;;17.00;9.60;;;;;;;17.16;68.46;101760.91;5030224;28;20021;-73
2022/07/19 04:39:41;;;;;;;18.17;10.23;;;;;;;17.08;68.29;101762.66;5021825;28;20373;-74
2022/07/19 04:42:06;;;;;;;16.30;9.82;;;;;;;17.15;68.30;101765.53;5010585;28;20013;-73
2022/07/19 04:44:32;;;;;;;18.65;10.82;;;;;;;17.13;68.44;101772.19;5012823;28;20512;-73
2022/07/19 04:46:57;;;;;;;22.02;9.23;;;;;;;17.15;68.29;101767.38;5010367;28;20022;-74
2022/07/19 04:49:23;;;;;;;12.25;9.35;;;;;;;17.32;67.82;101766.25;5027354;28;20482;-74
2022/07/19 04:51:48;;;;;;;15.73;9.23;;;;;;;17.54;67.05;101765.44;5012109;28;20435;-74
2022/07/19 04:54:14;;;;;;;17.90;11.07;;;;;;;17.78;66.37;101771.78;5014994;28;20022;-73
2022/07/19 04:56:39;;;;;;;17.85;11.43;;;;;;;17.95;66.27;101762.38;5005078;28;20057;-74
2022/07/19 04:59:04;;;;;;;15.45;10.68;;;;;;;18.05;65.79;101776.66;5010150;28;20038;-73
2022/07/19 05:01:30;;;;;;;22.02;10.35;;;;;;;18.07;65.82;101766.38;5011934;28;20021;-73
2022/07/19 05:03:56;;;;;;;15.43;10.60;;;;;;;18.22;65.78;101773.78;5029480;28;20030;-73
2022/07/19 05:06:24;;;;;;;15.45;10.40;;;;;;;18.28;64.85;101773.03;5029881;28;20036;-73
2022/07/19 05:08:50;;;;;;;15.85;10.18;;;;;;;18.36;65.59;101772.94;5023749;28;20108;-73
2022/07/19 05:11:15;;;;;;;19.50;10.55;;;;;;;18.37;66.42;101777.38;5031637;28;20108;-74
2022/07/19 05:13:40;;;;;;;16.70;9.13;;;;;;;18.57;65.47;101770.31;5012243;28;20050;-74
2022/07/19 05:16:06;;;;;;;19.27;10.35;;;;;;;18.68;65.40;101769.88;5016575;28;20048;-74
2022/07/19 05:18:31;;;;;;;24.45;10.55;;;;;;;18.78;64.99;101763.22;5032771;28;20040;-73
2022/07/19 05:20:57;;;;;;;26.45;10.57;;;;;;;18.92;64.54;101765.13;4997190;28;20484;-74
2022/07/19 05:23:22;;;;;;;15.75;10.35;;;;;;;19.06;63.84;101761.50;5011580;28;20026;-74
2022/07/19 05:25:47;;;;;;;16.48;11.00;;;;;;;19.18;63.73;101759.13;5027372;28;20041;-74
2022/07/19 05:28:13;;;;;;;18.65;10.25;;;;;;;19.31;63.24;101761.16;5005427;28;20030;-74
2022/07/19 05:30:38;;;;;;;20.20;9.45;;;;;;;19.39;63.33;101755.53;5016524;28;20055;-73
2022/07/19 05:33:04;;;;;;;17.23;9.63;;;;;;;19.51;62.85;101764.97;5022272;28;20077;-74
2022/07/19 05:35:30;;;;;;;22.77;8.93;;;;;;;19.69;62.47;101762.66;5004871;28;20167;-74
2022/07/19 05:37:55;;;;;;;18.30;9.27;;;;;;;19.74;62.71;101754.66;5034161;28;20364;-74
2022/07/19 05:40:20;;;;;;;18.15;9.70;;;;;;;19.83;62.03;101754.53;5016173;28;20029;-74
2022/07/19 05:42:46;;;;;;;20.70;9.35;;;;;;;19.98;61.47;101749.81;5026655;28;20025;-74
2022/07/19 05:45:11;;;;;;;17.88;10.65;;;;;;;20.04;61.52;101757.25;5032696;28;20115;-74
2022/07/19 05:47:36;;;;;;;17.40;10.23;;;;;;;20.26;61.32;101758.03;4996931;28;20029;-74
2022/07/19 05:50:02;;;;;;;19.23;9.07;;;;;;;20.36;60.62;101763.19;5030470;28;20025;-74
2022/07/19 05:52:28;;;;;;;18.27;10.00;;;;;;;20.51;60.16;101758.47;5016122;28;20093;-74
2022/07/19 05:54:53;;;;;;;20.83;9.95;;;;;;;20.60;60.08;101759.97;5016312;28;20032;-74
2022/07/19 05:57:18;;;;;;;20.30;9.95;;;;;;;20.61;59.77;101756.19;5016058;28;20052;-74
2022/07/19 05:59:44;;;;;;;20.55;9.77;;;;;;;20.72;59.45;101752.84;5015433;28;20021;-74
2022/07/19 06:02:09;;;;;;;20.27;10.07;;;;;;;20.89;59.59;101755.28;5029244;28;20112;-73
2022/07/19 06:04:35;;;;;;;20.30;8.65;;;;;;;21.04;58.04;101761.47;5024011;28;20025;-74
2022/07/19 06:07:00;;;;;;;20.77;8.63;;;;;;;21.19;57.80;101753.94;5015524;28;20076;-74
2022/07/19 06:09:25;;;;;;;16.40;8.98;;;;;;;21.38;57.36;101752.28;5013850;28;20045;-74
2022/07/19 06:11:52;;;;;;;16.67;8.50;;;;;;;21.44;56.14;101759.72;5031150;28;20064;-74
2022/07/19 06:14:18;;;;;;;18.25;7.50;;;;;;;21.60;56.70;101755.75;5022000;28;20061;-74
2022/07/19 06:16:43;;;;;;;14.70;8.38;;;;;;;21.77;55.65;101757.00;5029926;28;20479;-74
2022/07/19 06:19:11;;;;;;;17.42;8.60;;;;;;;21.66;54.50;101760.41;5005974;28;20021;-74
2022/07/19 06:21:36;;;;;;;18.35;7.82;;;;;;;21.73;55.61;101765.94;5026428;28;20120;-74
2022/07/19 06:24:02;;;;;;;18.63;7.53;;;;;;;21.98;55.33;101757.91;5029449;28;20069;-74
2022/07/19 06:26:27;;;;;;;14.18;8.32;;;;;;;22.19;55.04;101757.69;5007130;28;20082;-74
2022/07/19 06:28:53;;;;;;;12.32;7.45;;;;;;;22.19;54.19;101771.50;5032847;28;20029;-74
2022/07/19 06:31:19;;;;;;;13.88;6.72;;;;;;;22.27;54.39;101760.22;5031874;28;20017;-74
2022/07/19 06:33:47;;;;;;;17.02;6.90;;;;;;;22.38;53.60;101767.03;5016267;28;20018;-74
2022/07/19 06:36:13;;;;;;;14.35;7.43;;;;;;;22.54;52.16;101774.00;5015106;28;20033;-74
2022/07/19 06:38:39;;;;;;;14.55;7.80;;;;;;;22.65;50.88;101770.56;5012517;28;20029;-74
2022/07/19 06:41:05;;;;;;;11.77;6.55;;;;;;;22.94;51.19;101770.06;5011786;28;20037;-74
2022/07/19 06:43:31;;;;;;;12.50;7.57;;;;;;;22.95;49.84;101782.84;5029579;28;20026;-74
2022/07/19 06:45:56;;;;;;;17.75;7.80;;;;;;;23.08;50.54;101772.78;5022492;28;20064;-74
2022/07/19 06:48:22;;;;;;;11.82;7.22;;;;;;;23.23;48.94;101771.44;5015970;28;20018;-74
2022/07/19 06:50:47;;;;;;;13.35;6.95;;;;;;;23.18;48.33;101775.94;5032674;28;20055;-73
2022/07/19 06:53:13;;;;;;;12.15;6.55;;;;;;;23.36;48.24;101773.28;5032849;28;20026;-74
2022/07/19 06:55:38;;;;;;;11.38;6.50;;;;;;;23.62;47.21;101774.22;5031816;28;20467;-74
2022/07/19 06:58:04;;;;;;;11.48;7.50;;;;;;;23.80;47.93;101777.09;5025875;28;20029;-74
2022/07/19 07:00:29;;;;;;;20.02;7.20;;;;;;;23.94;46.94;101770.38;5018371;28;20140;-74
2022/07/19 07:02:55;;;;;;;15.73;7.68;;;;;;;23.97;46.61;101772.69;5012018;28;20068;-74
2022/07/19 07:05:20;;;;;;;13.85;6.68;;;;;;;24.06;45.91;101773.22;5031575;28;20022;-74
2022/07/19 07:07:47;;;;;;;19.17;6.72;;;;;;;24.06;46.24;101773.22;5026167;28;20506;-74
2022/07/19 07:10:13;;;;;;;14.63;6.70;;;;;;;24.23;46.14;101773.53;5014247;28;20496;-74
2022/07/19 07:12:38;;;;;;;14.60;7.32;;;;;;;24.52;45.78;101777.56;5013378;28;20029;-74
2022/07/19 07:15:05;;;;;;;15.05;7.15;;;;;;;24.78;45.50;101779.19;5019280;28;20030;-74
2022/07/19 07:17:31;;;;;;;15.73;6.97;;;;;;;24.75;45.67;101776.84;5015586;28;20403;-74
2022/07/19 07:19:56;;;;;;;14.27;7.20;;;;;;;24.98;45.28;101771.47;5019252;28;20022;-74
2022/07/19 07:22:22;;;;;;;15.77;6.97;;;;;;;25.12;45.33;101778.56;5006429;28;20018;-74
2022/07/19 07:24:47;;;;;;;12.68;7.65;;;;;;;25.20;45.63;101776.56;5024358;28;20029;-74
2022/07/19 07:27:13;;;;;;;11.32;6.88;;;;;;;25.29;44.72;101783.47;5014375;28;20033;-73
2022/07/19 07:29:38;;;;;;;10.85;6.57;;;;;;;25.34;44.78;101787.22;5033058;28;20028;-74
2022/07/19 07:32:04;;;;;;;18.48;6.75;;;;;;;25.55;43.94;101788.63;5015640;28;20068;-73
2022/07/19 07:34:29;;;;;;;18.02;6.75;;;;;;;25.76;43.68;101783.69;5016053;28;20476;-73
2022/07/19 07:36:55;;;;;;;9.57;6.53;;;;;;;25.88;42.96;101781.75;5016269;28;20068;-74
2022/07/19 07:39:20;;;;;;;10.90;6.80;;;;;;;26.15;43.04;101774.72;5033115;28;20026;-73
2022/07/19 07:41:46;;;;;;;12.32;6.00;;;;;;;26.10;41.47;101780.13;5016001;28;20017;-74
2022/07/19 07:44:11;;;;;;;10.63;5.97;;;;;;;26.59;40.71;101777.97;5015995;28;20109;-74
2022/07/19 07:46:37;;;;;;;12.80;6.85;;;;;;;26.60;40.17;101774.09;5028253;28;20017;-72
2022/07/19 07:49:03;;;;;;;13.57;6.75;;;;;;;26.77;40.31;101775.06;5009487;28;20017;-73
2022/07/19 07:51:28;;;;;;;11.65;6.10;;;;;;;26.95;39.01;101776.84;5026381;28;20503;-72
2022/07/19 07:53:54;;;;;;;14.30;6.30;;;;;;;27.13;39.35;101767.53;5027374;28;20017;-73
2022/07/19 07:56:19;;;;;;;16.13;6.22;;;;;;;27.15;39.20;101776.44;5017302;28;20439;-73
2022/07/19 07:58:45;;;;;;;17.35;5.95;;;;;;;27.16;38.31;101767.00;5009693;28;20025;-73
2022/07/19 08:01:10;;;;;;;8.85;5.97;;;;;;;27.35;38.00;101761.25;5026894;28;20028;-72
2022/07/19 08:03:38;;;;;;;13.60;8.18;;;;;;;27.79;37.67;101757.66;5026267;28;20489;-72
2022/07/19 08:06:03;;;;;;;8.55;5.60;;;;;;;27.62;37.66;101758.72;5009668;28;20136;-73
2022/07/19 08:08:29;;;;;;;17.10;6.15;;;;;;;27.50;38.34;101761.53;5025755;28;20040;-73
2022/07/19 08:10:55;;;;;;;11.55;5.88;;;;;;;27.67;38.41;101756.88;5026569;28;20076;-72
2022/07/19 08:13:21;;;;;;;12.45;6.07;;;;;;;27.91;36.94;101756.72;5026618;28;20018;-72
2022/07/19 08:15:47;;;;;;;28.20;6.88;;;;;;;27.94;36.65;101745.09;5008799;28;20032;-71
2022/07/19 08:18:12;;;;;;;8.65;5.80;;;;;;;28.30;36.17;101755.72;5010420;28;20479;-74
2022/07/19 08:20:38;;;;;;;12.85;7.95;;;;;;;28.11;36.22;101757.09;5025701;28;20032;-73
2022/07/19 08:23:03;;;;;;;13.57;6.32;;;;;;;28.47;35.30;101752.09;5009465;28;20032;-72
2022/07/19 08:25:29;;;;;;;10.15;6.40;;;;;;;28.52;35.41;101749.38;5008209;28;20025;-73
2022/07/19 08:27:54;;;;;;;9.43;5.63;;;;;;;28.77;35.28;101743.31;5008690;28;20121;-71
2022/07/19 08:30:21;;;;;;;10.80;5.80;;;;;;;28.54;36.25;101744.38;5027440;28;20018;-73
2022/07/19 08:32:47;;;;;;;14.27;6.07;;;;;;;28.50;36.13;101737.66;5026650;28;20032;-72
2022/07/19 08:35:12;;;;;;;10.23;5.90;;;;;;;28.85;35.56;101734.50;5024949;28;20021;-71
2022/07/19 08:37:38;;;;;;;14.77;6.43;;;;;;;28.98;35.61;101733.28;5010800;28;20025;-73
2022/07/19 08:40:05;;;;;;;10.75;5.63;;;;;;;28.98;36.00;101727.72;5010599;28;20029;-73
2022/07/19 08:42:31;;;;;;;9.18;5.45;;;;;;;29.10;35.44;101726.47;5028879;28;20037;-73
2022/07/19 08:45:01;;;;;;;9.32;6.07;;;;;;;29.05;34.96;101722.78;5028311;28;20048;-73
2022/07/19 08:47:29;;;;;;;10.75;5.45;;;;;;;29.03;35.02;101725.00;5011177;28;20033;-72
2022/07/19 08:49:56;;;;;;;13.27;5.85;;;;;;;29.22;34.98;101729.13;5028131;28;20071;-74
2022/07/19 08:52:23;;;;;;;15.90;5.82;;;;;;;29.20;34.03;101731.31;5028640;28;20021;-72
2022/07/19 08:54:48;;;;;;;15.73;5.65;;;;;;;29.32;33.48;101729.22;5027703;28;20057;-71
2022/07/19 08:59:58;;;;;;;13.02;6.25;;;;;;;29.45;32.80;101723.19;5028524;28;20037;-73
2022/07/19 09:02:23;;;;;;;13.77;5.88;;;;;;;29.82;32.71;101716.88;5026959;28;20017;-73
2022/07/19 09:05:10;;;;;;;14.23;5.35;;;;;;;29.78;32.43;101714.88;5010914;28;20094;-73
2022/07/19 09:07:38;;;;;;;11.07;5.57;;;;;;;29.84;31.35;101719.41;5010981;28;20120;-73
2022/07/19 09:10:21;;;;;;;11.73;6.15;;;;;;;30.02;31.16;101715.34;5029039;28;20028;-73
2022/07/19 09:13:03;;;;;;;7.70;5.03;;;;;;;30.06;29.66;101710.91;5027506;28;20026;-73
2022/07/19 09:15:49;;;;;;;15.55;5.25;;;;;;;30.09;29.11;101713.16;5029111;28;20060;-73
2022/07/19 09:18:31;;;;;;;12.95;5.13;;;;;;;30.25;29.32;101709.38;5011565;28;20052;-73
2022/07/19 09:21:06;;;;;;;13.13;5.75;;;;;;;30.36;30.58;101710.31;5028194;28;20052;-73
2022/07/19 09:23:33;;;;;;;11.77;6.18;;;;;;;30.34;29.01;101724.56;5010977;28;20018;-73
2022/07/19 09:26:01;;;;;;;7.80;5.00;;;;;;;30.60;28.43;101716.31;5028371;28;20175;-72
2022/07/19 09:28:31;;;;;;;26.38;6.68;;;;;;;30.91;28.30;101718.16;5028546;28;20028;-73
2022/07/19 09:30:58;;;;;;;12.00;4.97;;;;;;;30.84;28.98;101716.72;5017629;28;20033;-74
2022/07/19 09:33:28;;;;;;;9.13;4.65;;;;;;;31.00;28.87;101722.09;5024292;28;20025;-71
2022/07/19 09:35:57;;;;;;;7.38;4.53;;;;;;;31.36;27.84;101713.81;5028981;28;20057;-70
2022/07/19 09:38:23;;;;;;;11.82;5.18;;;;;;;31.39;28.60;101713.25;5030351;28;20033;-71
2022/07/19 09:40:51;;;;;;;13.60;4.97;;;;;;;31.71;28.01;101720.56;5029419;28;20025;-72
2022/07/19 09:43:18;;;;;;;9.93;4.90;;;;;;;31.67;28.12;101713.84;5029268;28;20017;-72
2022/07/19 09:45:45;;;;;;;17.17;5.70;;;;;;;32.06;27.17;101712.19;5013008;28;20021;-72
2022/07/19 09:48:11;;;;;;;14.40;4.97;;;;;;;31.61;26.81;101718.59;5010336;28;20112;-71
2022/07/19 09:50:36;;;;;;;7.00;4.15;;;;;;;31.54;27.88;101710.47;5031878;28;20515;-71
2022/07/19 09:53:04;;;;;;;14.15;4.38;;;;;;;31.69;27.99;101706.00;5027459;28;20148;-72
2022/07/19 09:55:30;;;;;;;10.18;4.60;;;;;;;31.56;28.13;101713.84;5011940;28;20048;-71
2022/07/19 09:57:58;;;;;;;12.32;5.25;;;;;;;31.56;27.72;101713.84;5017488;28;20041;-73
2022/07/19 10:00:25;;;;;;;17.58;5.18;;;;;;;31.48;28.05;101714.38;5033295;28;20018;-71
2022/07/19 10:02:52;;;;;;;11.05;5.28;;;;;;;31.53;27.32;101714.41;5017625;28;20053;-72
2022/07/19 10:05:18;;;;;;;13.13;4.68;;;;;;;31.36;26.92;101713.81;5032673;28;20036;-72
2022/07/19 10:07:44;;;;;;;9.75;4.90;;;;;;;31.34;27.11;101710.44;5034171;28;20026;-72
2022/07/19 10:10:15;;;;;;;10.98;5.15;;;;;;;32.23;26.19;101702.63;5017233;28;20022;-72
2022/07/19 10:12:43;;;;;;;13.48;5.53;;;;;;;32.45;25.75;101713.53;5018992;28;20021;-73
2022/07/19 10:15:10;;;;;;;12.02;4.53;;;;;;;32.00;26.66;101706.84;5018749;28;20129;-73
2022/07/19 10:17:48;;;;;;;9.40;3.78;;;;;;;32.56;24.93;101710.41;5018168;28;20068;-72
2022/07/19 10:20:21;;;;;;;14.82;5.13;;;;;;;32.62;25.77;101712.06;5034802;28;20031;-72
2022/07/19 10:22:46;;;;;;;8.10;4.50;;;;;;;32.96;25.86;101708.59;5017666;28;20116;-72
2022/07/19 10:25:14;;;;;;;8.60;3.67;;;;;;;32.96;25.81;101700.16;5017996;28;20037;-72
2022/07/19 10:27:42;;;;;;;6.70;4.32;;;;;;;32.81;25.81;101697.41;5019602;28;20127;-73
2022/07/19 10:30:07;;;;;;;10.45;4.68;;;;;;;32.86;25.62;101698.25;5035645;28;20096;-72
2022/07/19 10:32:33;;;;;;;10.82;4.28;;;;;;;32.85;25.40;101696.53;5035659;28;20026;-71
2022/07/19 10:35:18;;;;;;;10.68;4.80;;;;;;;33.13;25.59;101686.59;5035271;28;20114;-71
2022/07/19 10:38:06;;;;;;;9.25;4.50;;;;;;;33.04;25.26;101682.72;5035078;28;20033;-71
2022/07/19 10:40:48;;;;;;;10.00;5.20;;;;;;;33.62;24.85;101688.50;5019444;28;20036;-71
2022/07/19 10:43:21;;;;;;;9.27;3.75;;;;;;;33.77;23.48;101673.47;5019657;28;20059;-72
2022/07/19 10:46:01;;;;;;;8.95;3.47;;;;;;;33.52;23.16;101688.59;5036014;28;20032;-71
2022/07/19 10:48:58;;;;;;;8.32;3.50;;;;;;;33.65;23.51;101682.31;5019187;28;20061;-73
2022/07/19 10:51:35;;;;;;;5.65;3.22;;;;;;;34.08;21.80;101674.06;5016803;28;20033;-73
2022/07/19 10:54:07;;;;;;;6.97;3.58;;;;;;;34.25;21.13;101674.44;5026178;28;20052;-73
2022/07/19 10:56:38;;;;;;;17.17;3.53;;;;;;;34.15;20.88;101682.13;5031341;28;20021;-71
2022/07/19 10:59:09;;;;;;;13.88;3.78;;;;;;;34.26;21.84;101673.31;5018794;28;20029;-73
2022/07/19 11:01:36;;;;;;;5.90;3.63;;;;;;;34.63;21.63;101673.75;5036409;28;20035;-73
2022/07/19 11:04:21;;;;;;;12.82;3.97;;;;;;;35.21;21.62;101667.84;5036101;28;20115;-72
2022/07/19 11:06:46;;;;;;;6.53;3.17;;;;;;;34.57;21.12;101666.50;5038097;28;20036;-72
2022/07/19 11:09:12;;;;;;;7.25;2.75;;;;;;;34.50;19.39;101669.69;5019011;28;20025;-72
2022/07/19 11:11:37;;;;;;;5.72;2.85;;;;;;;34.87;20.00;101668.06;5037982;28;20026;-72
2022/07/19 11:14:04;;;;;;;9.13;3.20;;;;;;;34.87;20.23;101662.44;5036041;28;20053;-71